Time;durP1;ratioP1;P1;durP2;ratioP2;P2;SDS_P1;SDS_P2;PMS_P1;PMS_P2;Temp;Humidity;BMP_temperature;BMP_pressure;BME280_temperature;BME280_humidity;BME280_pressure;Samples;Min_cycle;Max_cycle;Signal;HPM_P1;HPM_P2
2024/02/02 00:00:55;;;;;;;8.83;2.10;;;7.40;99.90;;;;;;5049711;28;20295;-69
2024/02/02 00:03:22;;;;;;;9.73;2.30;;;7.40;99.90;;;;;;5051353;28;20273;-70
2024/02/02 00:05:49;;;;;;;10.73;2.53;;;7.40;99.90;;;;;;5051651;28;20190;-68
2024/02/02 00:08:16;;;;;;;13.80;3.00;;;7.50;99.90;;;;;;5051211;28;20687;-70
2024/02/02 00:10:45;;;;;;;15.67;3.37;;;7.50;99.90;;;;;;5051946;28;20625;-69
2024/02/02 00:13:12;;;;;;;17.90;3.50;;;7.50;99.90;;;;;;5051950;28;20665;-69
2024/02/02 00:15:39;;;;;;;8.27;2.20;;;7.50;99.90;;;;;;5046947;28;20288;-70
2024/02/02 00:18:07;;;;;;;16.27;2.83;;;7.40;99.90;;;;;;5049438;28;20221;-70
2024/02/02 00:20:34;;;;;;;9.87;2.40;;;7.40;99.90;;;;;;5049848;28;20202;-69
2024/02/02 00:23:01;;;;;;;13.30;3.10;;;7.40;99.90;;;;;;5050580;28;20231;-69
2024/02/02 00:25:28;;;;;;;18.20;3.60;;;7.50;99.90;;;;;;5051180;28;20216;-68
2024/02/02 00:27:56;;;;;;;17.17;3.20;;;7.40;99.90;;;;;;5049646;28;20218;-70
2024/02/02 00:30:24;;;;;;;17.17;3.63;;;7.40;99.90;;;;;;5047582;28;20284;-69
2024/02/02 00:32:50;;;;;;;15.27;3.50;;;7.40;99.90;;;;;;5049611;28;20193;-68
2024/02/02 00:35:20;;;;;;;14.17;2.80;;;7.30;99.90;;;;;;5049633;28;20198;-70
2024/02/02 00:37:47;;;;;;;9.23;2.33;;;7.30;99.90;;;;;;5049169;28;20259;-69
2024/02/02 00:40:14;;;;;;;10.00;2.87;;;7.30;99.90;;;;;;5047856;28;20296;-69
2024/02/02 00:42:42;;;;;;;11.70;2.60;;;7.30;99.90;;;;;;5050100;28;20292;-69
2024/02/02 00:45:11;;;;;;;12.23;2.57;;;7.30;99.90;;;;;;5048529;28;20300;-69
2024/02/02 00:47:38;;;;;;;12.40;2.50;;;7.30;99.90;;;;;;5046355;28;20201;-69
2024/02/02 00:50:06;;;;;;;10.80;2.50;;;7.20;99.90;;;;;;5048162;28;20280;-70
2024/02/02 00:52:33;;;;;;;8.93;2.33;;;7.20;99.90;;;;;;5049754;28;20190;-70
2024/02/02 00:55:00;;;;;;;13.37;2.60;;;7.20;99.90;;;;;;5049140;28;20227;-69
2024/02/02 00:57:29;;;;;;;11.40;2.43;;;7.20;99.90;;;;;;5051054;28;20665;-71
2024/02/02 00:59:56;;;;;;;9.20;2.60;;;7.20;99.90;;;;;;5052822;28;20208;-70
2024/02/02 01:02:24;;;;;;;14.10;2.47;;;7.20;99.90;;;;;;5051925;28;20257;-70
2024/02/02 01:04:52;;;;;;;11.30;2.50;;;7.10;99.90;;;;;;5052550;28;20189;-70
2024/02/02 01:07:19;;;;;;;11.23;2.27;;;7.20;99.90;;;;;;5054408;28;20205;-69
2024/02/02 01:09:46;;;;;;;16.00;3.47;;;7.20;99.90;;;;;;5052566;28;20276;-69
2024/02/02 01:12:13;;;;;;;12.40;2.47;;;7.20;99.90;;;;;;5044942;28;20197;-69
2024/02/02 01:14:41;;;;;;;9.33;2.53;;;7.20;99.90;;;;;;5053354;28;20300;-68
2024/02/02 01:17:08;;;;;;;16.90;4.10;;;7.20;99.90;;;;;;5052759;28;20229;-68
2024/02/02 01:19:37;;;;;;;9.40;2.53;;;7.10;99.90;;;;;;5052629;28;20634;-69
2024/02/02 01:22:04;;;;;;;12.67;2.63;;;7.10;99.90;;;;;;5052771;28;20204;-69
2024/02/02 01:24:35;;;;;;;11.13;2.03;;;7.00;99.90;;;;;;5052150;28;20238;-70
2024/02/02 01:27:05;;;;;;;10.67;2.40;;;7.00;99.90;;;;;;5053572;28;20355;-70
2024/02/02 01:29:33;;;;;;;12.90;2.87;;;7.00;99.90;;;;;;5052043;28;20299;-70
2024/02/02 01:32:00;;;;;;;10.87;2.93;;;7.00;99.90;;;;;;5050541;28;20296;-69
2024/02/02 01:34:27;;;;;;;15.17;3.03;;;7.10;99.90;;;;;;5052594;28;20196;-69
2024/02/02 01:36:55;;;;;;;9.20;2.27;;;7.10;99.90;;;;;;5048468;28;20241;-70
2024/02/02 01:39:22;;;;;;;17.63;3.70;;;7.10;99.90;;;;;;5048867;28;20233;-68
2024/02/02 01:41:49;;;;;;;15.77;2.90;;;7.10;99.90;;;;;;5051134;28;20557;-69
2024/02/02 01:44:16;;;;;;;4.77;1.80;;;7.00;99.90;;;;;;5052665;28;20255;-69
2024/02/02 01:46:47;;;;;;;15.97;3.30;;;7.00;99.90;;;;;;5050350;28;20306;-69
2024/02/02 01:49:14;;;;;;;13.57;2.87;;;7.00;99.90;;;;;;5043009;28;20238;-68
2024/02/02 01:51:41;;;;;;;13.03;2.70;;;7.00;99.90;;;;;;5052076;28;20341;-68
2024/02/02 01:54:10;;;;;;;14.60;3.33;;;7.00;99.90;;;;;;5053132;28;20193;-68
2024/02/02 01:56:37;;;;;;;6.30;1.90;;;7.00;99.90;;;;;;5052723;28;20229;-69
2024/02/02 01:59:07;;;;;;;11.33;2.60;;;7.00;99.90;;;;;;5050750;28;20587;-69
2024/02/02 02:01:35;;;;;;;8.37;2.40;;;7.00;99.90;;;;;;5053066;28;20190;-69
2024/02/02 02:04:02;;;;;;;12.90;2.87;;;7.00;99.90;;;;;;5050676;28;20308;-69
2024/02/02 02:06:29;;;;;;;14.73;2.80;;;7.00;99.90;;;;;;5052297;28;20255;-69
2024/02/02 02:08:56;;;;;;;10.80;3.17;;;7.00;99.90;;;;;;5049930;28;20664;-69
2024/02/02 02:11:24;;;;;;;8.17;2.30;;;7.10;99.90;;;;;;5052465;28;20254;-69
2024/02/02 02:13:52;;;;;;;11.37;2.70;;;7.10;99.90;;;;;;5052493;28;20196;-69
2024/02/02 02:16:19;;;;;;;14.43;3.17;;;7.10;99.90;;;;;;5050771;28;20211;-70
2024/02/02 02:18:46;;;;;;;9.27;2.40;;;7.10;99.90;;;;;;5050560;28;20713;-68
2024/02/02 02:21:24;;;;;;;11.00;2.40;;;7.00;99.90;;;;;;5051950;28;20222;-69
2024/02/02 02:23:52;;;;;;;8.77;2.37;;;7.00;99.90;;;;;;5052670;28;20229;-69
2024/02/02 02:26:19;;;;;;;8.87;2.03;;;7.00;99.90;;;;;;5052405;28;20286;-67
2024/02/02 02:28:47;;;;;;;11.13;2.27;;;7.00;99.90;;;;;;5050217;28;20306;-69
2024/02/02 02:31:14;;;;;;;14.40;3.37;;;7.10;99.90;;;;;;5050617;28;20267;-69
2024/02/02 02:33:42;;;;;;;15.77;3.17;;;7.00;99.90;;;;;;5048339;28;20213;-69
2024/02/02 02:36:10;;;;;;;7.40;2.20;;;7.10;99.90;;;;;;5051954;28;20284;-69
2024/02/02 02:38:38;;;;;;;8.40;2.00;;;7.10;99.90;;;;;;5051433;28;20280;-70
2024/02/02 02:41:06;;;;;;;16.80;2.70;;;7.10;99.90;;;;;;5052130;28;20200;-69
2024/02/02 02:43:33;;;;;;;14.20;2.97;;;7.10;99.90;;;;;;5050677;28;20201;-69
2024/02/02 02:45:59;;;;;;;10.20;2.37;;;7.10;99.90;;;;;;5051694;28;20196;-68
2024/02/02 02:48:27;;;;;;;15.63;3.03;;;7.10;99.90;;;;;;5048810;28;20247;-69
2024/02/02 02:50:54;;;;;;;11.53;2.87;;;7.10;99.90;;;;;;5049727;28;20273;-69
2024/02/02 02:53:21;;;;;;;16.27;3.20;;;7.10;99.90;;;;;;5051845;28;20596;-68
2024/02/02 02:55:49;;;;;;;14.43;2.97;;;7.10;99.90;;;;;;5051757;28;20233;-69
2024/02/02 02:58:16;;;;;;;11.00;2.10;;;7.20;99.90;;;;;;5050908;28;20226;-69
2024/02/02 03:00:43;;;;;;;14.07;2.57;;;7.20;99.90;;;;;;5050890;28;20200;-69
2024/02/02 03:03:10;;;;;;;12.20;2.40;;;7.10;99.90;;;;;;5047676;28;20225;-68
2024/02/02 03:05:39;;;;;;;13.33;2.83;;;7.10;99.90;;;;;;5050790;28;20201;-69
2024/02/02 03:08:06;;;;;;;19.73;3.17;;;7.10;99.90;;;;;;5051702;28;20251;-69
2024/02/02 03:10:33;;;;;;;15.70;3.30;;;7.10;99.90;;;;;;5050542;28;20708;-69
2024/02/02 03:13:02;;;;;;;7.97;2.40;;;7.10;99.90;;;;;;5051795;28;20209;-69
2024/02/02 03:15:31;;;;;;;13.13;2.40;;;7.10;99.90;;;;;;5048813;28;20213;-69
2024/02/02 03:17:58;;;;;;;12.10;3.03;;;7.10;99.90;;;;;;5049412;28;20193;-70
2024/02/02 03:20:27;;;;;;;7.67;1.83;;;7.10;99.90;;;;;;5049341;28;20280;-70
2024/02/02 03:22:54;;;;;;;10.97;2.90;;;7.20;99.90;;;;;;5050829;28;20675;-68
2024/02/02 03:25:21;;;;;;;12.77;2.50;;;7.20;99.90;;;;;;5051422;28;20197;-70
2024/02/02 03:27:48;;;;;;;10.37;2.50;;;7.10;99.90;;;;;;5048649;28;20270;-69
2024/02/02 03:30:17;;;;;;;12.10;2.83;;;7.10;99.90;;;;;;5049230;28;20268;-68
2024/02/02 03:32:45;;;;;;;15.10;2.47;;;7.10;99.90;;;;;;5048665;28;20612;-68
2024/02/02 03:35:12;;;;;;;6.87;2.00;;;7.10;99.90;;;;;;5049211;28;20201;-69
2024/02/02 03:37:39;;;;;;;10.13;2.00;;;7.10;99.90;;;;;;5048465;28;20590;-70
2024/02/02 03:40:06;;;;;;;18.07;3.57;;;7.10;99.90;;;;;;5048758;28;20197;-68
2024/02/02 03:42:32;;;;;;;12.30;2.60;;;7.10;99.90;;;;;;5050924;28;20232;-68
2024/02/02 03:44:59;;;;;;;9.07;2.20;;;7.10;99.90;;;;;;5050297;28;20231;-69
2024/02/02 03:47:28;;;;;;;11.87;2.40;;;7.10;99.90;;;;;;5049491;28;20193;-69
2024/02/02 03:49:55;;;;;;;12.33;2.43;;;7.10;99.90;;;;;;5049036;28;20763;-69
2024/02/02 03:52:23;;;;;;;9.70;2.57;;;7.10;99.90;;;;;;5048869;28;20596;-68
2024/02/02 03:54:50;;;;;;;14.23;3.00;;;7.10;99.90;;;;;;5050608;28;20526;-69
2024/02/02 03:57:17;;;;;;;9.70;2.57;;;7.10;99.90;;;;;;5049567;28;20328;-68
2024/02/02 03:59:44;;;;;;;13.20;2.93;;;7.10;99.90;;;;;;5047966;28;20190;-68
2024/02/02 04:02:11;;;;;;;15.60;2.67;;;7.00;99.90;;;;;;5048487;28;20194;-69
2024/02/02 04:04:40;;;;;;;14.17;2.93;;;7.00;99.90;;;;;;5050078;28;20537;-68
2024/02/02 04:07:07;;;;;;;13.83;2.93;;;7.00;99.90;;;;;;5049479;28;20216;-69
2024/02/02 04:09:34;;;;;;;15.90;3.07;;;7.00;99.90;;;;;;5049652;28;20641;-69
2024/02/02 04:12:01;;;;;;;9.13;2.40;;;7.10;99.90;;;;;;5050466;28;20739;-69
2024/02/02 04:14:28;;;;;;;17.00;2.30;;;7.00;99.90;;;;;;5049968;28;20204;-69
2024/02/02 04:16:54;;;;;;;11.20;3.20;;;7.00;99.90;;;;;;5050099;28;20569;-68
2024/02/02 04:19:21;;;;;;;19.13;2.50;;;7.00;99.90;;;;;;5046689;28;20196;-68
2024/02/02 04:21:49;;;;;;;18.10;3.47;;;7.00;99.90;;;;;;5041585;28;20205;-68
2024/02/02 04:24:16;;;;;;;11.90;3.17;;;7.00;99.90;;;;;;5050358;28;20193;-69
2024/02/02 04:26:43;;;;;;;8.27;2.57;;;7.00;99.90;;;;;;5050320;28;20201;-69
2024/02/02 04:29:10;;;;;;;9.17;2.10;;;7.00;99.90;;;;;;5049629;28;20221;-69
2024/02/02 04:31:37;;;;;;;6.80;1.70;;;7.00;99.90;;;;;;5048582;28;20535;-69
2024/02/02 04:34:04;;;;;;;13.63;2.10;;;7.10;99.90;;;;;;5048406;28;20305;-69
2024/02/02 04:36:31;;;;;;;12.80;2.33;;;7.10;99.90;;;;;;5050056;28;20210;-69
2024/02/02 04:39:00;;;;;;;13.80;2.73;;;7.10;99.90;;;;;;5050018;28;20197;-69
2024/02/02 04:41:27;;;;;;;14.10;3.03;;;7.20;99.90;;;;;;5049625;28;20276;-69
2024/02/02 04:43:54;;;;;;;17.17;3.13;;;7.10;99.90;;;;;;5047711;28;20215;-69
2024/02/02 04:46:21;;;;;;;11.93;2.43;;;7.10;99.90;;;;;;5050158;28;20205;-70
2024/02/02 04:48:48;;;;;;;15.37;3.00;;;7.10;99.90;;;;;;5046706;28;20283;-69
2024/02/02 04:51:15;;;;;;;10.90;2.50;;;7.00;99.90;;;;;;5049279;28;20403;-69
2024/02/02 04:53:42;;;;;;;16.63;3.13;;;7.00;99.90;;;;;;5048241;28;20189;-69
2024/02/02 04:56:10;;;;;;;12.50;3.10;;;7.00;99.90;;;;;;5050847;28;20197;-69
2024/02/02 04:58:37;;;;;;;9.00;2.53;;;7.00;99.90;;;;;;5050166;28;20221;-69
2024/02/02 05:01:05;;;;;;;7.13;2.10;;;7.00;99.90;;;;;;5049172;28;20220;-69
2024/02/02 05:03:32;;;;;;;13.50;3.33;;;7.00;99.90;;;;;;5047975;28;20221;-68
2024/02/02 05:05:59;;;;;;;20.00;3.60;;;7.00;99.90;;;;;;5050546;28;20260;-68
2024/02/02 05:08:26;;;;;;;20.73;3.50;;;7.00;99.90;;;;;;5044832;28;20193;-68
2024/02/02 05:10:53;;;;;;;12.10;3.03;;;6.90;99.90;;;;;;5050541;28;20302;-69
2024/02/02 05:13:21;;;;;;;13.03;2.60;;;6.90;99.90;;;;;;5048588;28;20204;-68
2024/02/02 05:15:48;;;;;;;22.77;3.30;;;6.90;99.90;;;;;;5046433;28;20204;-69
2024/02/02 05:18:15;;;;;;;14.13;3.23;;;6.90;99.90;;;;;;5044685;28;20208;-69
2024/02/02 05:20:42;;;;;;;17.97;3.63;;;6.80;99.90;;;;;;5049427;28;20198;-69
2024/02/02 05:23:10;;;;;;;9.77;2.50;;;6.80;99.90;;;;;;5050434;28;20204;-69
2024/02/02 05:25:37;;;;;;;15.73;2.80;;;6.80;99.90;;;;;;5048167;28;20229;-69
2024/02/02 05:28:05;;;;;;;16.83;3.23;;;6.80;99.90;;;;;;5050152;28;20635;-69
2024/02/02 05:30:33;;;;;;;22.43;3.80;;;6.80;99.90;;;;;;5048160;28;20241;-69
2024/02/02 05:33:00;;;;;;;11.97;2.87;;;6.70;99.90;;;;;;5049243;28;20354;-69
2024/02/02 05:35:27;;;;;;;12.23;2.20;;;6.80;99.90;;;;;;5048222;28;20217;-69
2024/02/02 05:37:54;;;;;;;15.23;2.77;;;6.60;99.90;;;;;;5049691;28;20275;-68
2024/02/02 05:40:21;;;;;;;14.43;3.30;;;6.70;99.90;;;;;;5049578;28;20280;-68
2024/02/02 05:42:48;;;;;;;14.37;2.53;;;6.70;99.90;;;;;;5049702;28;20228;-69
2024/02/02 05:45:15;;;;;;;7.90;2.60;;;6.70;99.90;;;;;;5050347;28;20238;-68
2024/02/02 05:47:43;;;;;;;11.27;2.27;;;6.60;99.90;;;;;;5052318;28;20227;-69
2024/02/02 05:50:11;;;;;;;15.50;3.03;;;6.60;99.90;;;;;;5051901;28;20904;-69
2024/02/02 05:52:38;;;;;;;15.77;2.87;;;6.60;99.90;;;;;;5053038;28;20194;-69
2024/02/02 05:55:05;;;;;;;8.37;2.63;;;6.70;99.90;;;;;;5051881;28;20225;-69
2024/02/02 05:57:32;;;;;;;8.20;2.17;;;6.70;99.90;;;;;;5052691;28;20196;-68
2024/02/02 05:59:59;;;;;;;12.33;2.20;;;6.70;99.90;;;;;;5049259;28;20275;-70
2024/02/02 06:02:26;;;;;;;19.07;3.17;;;6.70;99.90;;;;;;5052646;28;20316;-70
2024/02/02 06:04:54;;;;;;;15.10;3.13;;;6.70;99.90;;;;;;5048518;28;20533;-69
2024/02/02 06:07:22;;;;;;;10.27;3.00;;;6.60;99.90;;;;;;5052515;28;20276;-69
2024/02/02 06:09:49;;;;;;;9.67;3.07;;;6.70;99.90;;;;;;5052093;28;20228;-68
2024/02/02 06:12:16;;;;;;;10.73;2.93;;;6.70;99.90;;;;;;5050949;28;20233;-68
2024/02/02 06:14:43;;;;;;;13.90;3.67;;;6.70;99.90;;;;;;5047589;28;20321;-69
2024/02/02 06:17:10;;;;;;;6.87;1.83;;;6.70;99.90;;;;;;5046933;28;20283;-68
2024/02/02 06:19:37;;;;;;;11.93;2.50;;;6.70;99.90;;;;;;5050998;28;20198;-69
2024/02/02 06:22:06;;;;;;;13.73;2.97;;;6.70;99.90;;;;;;5051621;28;20212;-68
2024/02/02 06:24:33;;;;;;;12.63;2.97;;;6.70;99.90;;;;;;5051206;28;20201;-69
2024/02/02 06:27:00;;;;;;;9.80;1.93;;;6.70;99.90;;;;;;5053405;28;20275;-69
2024/02/02 06:29:27;;;;;;;16.37;3.63;;;6.80;99.90;;;;;;5051663;28;20197;-68
2024/02/02 06:31:54;;;;;;;10.23;2.70;;;6.80;99.90;;;;;;5050382;28;20258;-69
2024/02/02 06:34:21;;;;;;;13.67;2.90;;;6.80;99.90;;;;;;5051683;28;20209;-69
2024/02/02 06:36:48;;;;;;;14.70;2.87;;;6.90;99.90;;;;;;5056811;28;20202;-69
2024/02/02 06:39:19;;;;;;;12.27;3.13;;;6.90;99.90;;;;;;5052515;28;20196;-69
2024/02/02 06:41:46;;;;;;;12.57;2.67;;;6.90;99.90;;;;;;5050833;28;20224;-69
2024/02/02 06:44:13;;;;;;;13.23;3.67;;;6.90;99.90;;;;;;5052062;28;20285;-70
2024/02/02 06:46:40;;;;;;;10.57;2.70;;;7.00;99.90;;;;;;5050888;28;20194;-70
2024/02/02 06:49:08;;;;;;;17.70;3.30;;;7.00;99.90;;;;;;5050564;28;20201;-70
2024/02/02 06:51:35;;;;;;;14.13;3.33;;;7.00;99.90;;;;;;5051616;28;20220;-69
2024/02/02 06:54:02;;;;;;;15.20;3.43;;;7.00;99.90;;;;;;5052169;28;20278;-69
2024/02/02 06:56:37;;;;;;;12.37;2.97;;;7.00;99.90;;;;;;5046527;28;20232;-68
2024/02/02 06:59:05;;;;;;;12.83;3.13;;;7.00;99.90;;;;;;5054534;28;20216;-68
2024/02/02 07:01:32;;;;;;;12.97;2.90;;;7.00;99.90;;;;;;5045485;28;20194;-69
2024/02/02 07:03:59;;;;;;;17.53;3.57;;;7.00;99.90;;;;;;5046692;28;20681;-69
2024/02/02 07:06:26;;;;;;;13.67;3.17;;;7.00;99.90;;;;;;5050146;28;20285;-69
2024/02/02 07:08:54;;;;;;;9.60;2.57;;;7.00;99.90;;;;;;5034377;28;20394;-69
2024/02/02 07:11:54;;;;;;;13.87;2.93;;;7.00;99.90;;;;;;5039836;28;20668;-69
2024/02/02 07:14:50;;;;;;;18.80;3.30;;;7.10;99.90;;;;;;5043979;28;20659;-69
2024/02/02 07:17:34;;;;;;;6.63;2.47;;;7.10;99.90;;;;;;5045004;28;20574;-69
2024/02/02 07:20:04;;;;;;;8.23;2.23;;;7.20;99.90;;;;;;5046390;28;20194;-69
2024/02/02 07:22:38;;;;;;;8.37;2.23;;;7.20;99.90;;;;;;5045771;28;20336;-69
2024/02/02 07:25:06;;;;;;;6.37;2.33;;;7.20;99.90;;;;;;5047226;28;20200;-69
2024/02/02 07:27:56;;;;;;;14.13;2.83;;;7.20;99.90;;;;;;5045479;28;20211;-69
2024/02/02 07:30:53;;;;;;;5.17;2.20;;;7.20;99.90;;;;;;5035671;28;20342;-69
2024/02/02 07:33:24;;;;;;;8.73;2.53;;;7.20;99.90;;;;;;5043037;28;20495;-69
2024/02/02 07:35:51;;;;;;;3.23;1.77;;;7.20;99.90;;;;;;5041489;28;20194;-69
2024/02/02 07:38:48;;;;;;;3.30;1.77;;;7.20;99.90;;;;;;5045956;28;20205;-69
2024/02/02 07:41:17;;;;;;;7.17;2.00;;;7.20;99.90;;;;;;5041374;28;20197;-69
2024/02/02 07:43:47;;;;;;;8.53;2.00;;;7.30;99.90;;;;;;5046179;28;20252;-69
2024/02/02 07:46:14;;;;;;;3.83;1.60;;;7.30;99.90;;;;;;5045597;28;20194;-69
2024/02/02 07:48:41;;;;;;;6.37;2.10;;;7.30;99.90;;;;;;5040368;28;20285;-70
2024/02/02 07:51:09;;;;;;;8.73;2.03;;;7.40;99.90;;;;;;5044970;28;20277;-70
2024/02/02 07:53:36;;;;;;;3.40;1.97;;;7.40;99.90;;;;;;5042446;28;20658;-70
2024/02/02 07:56:03;;;;;;;5.87;2.07;;;7.40;99.90;;;;;;5046537;28;20259;-70
2024/02/02 07:58:30;;;;;;;3.57;1.70;;;7.40;99.90;;;;;;5040289;28;20288;-70
2024/02/02 08:00:59;;;;;;;3.03;1.20;;;7.40;99.90;;;;;;5042510;28;20190;-69
2024/02/02 08:03:26;;;;;;;4.87;1.63;;;7.40;99.90;;;;;;5044860;28;20237;-69
2024/02/02 08:05:53;;;;;;;4.70;1.90;;;7.50;99.90;;;;;;5027125;28;20194;-70
2024/02/02 08:08:20;;;;;;;3.87;2.20;;;7.50;99.90;;;;;;5041817;28;20415;-69
2024/02/02 08:10:48;;;;;;;4.80;2.20;;;7.50;99.90;;;;;;5045619;28;20221;-70
2024/02/02 08:13:15;;;;;;;4.57;1.87;;;7.50;99.90;;;;;;5037166;28;20190;-69
2024/02/02 08:15:43;;;;;;;3.70;1.83;;;7.60;99.90;;;;;;5046186;28;20221;-70
2024/02/02 08:18:12;;;;;;;2.03;1.43;;;7.60;99.90;;;;;;5045891;28;20189;-70
2024/02/02 08:20:39;;;;;;;3.97;1.70;;;7.60;99.90;;;;;;5046077;28;20609;-71
2024/02/02 08:23:06;;;;;;;3.70;1.93;;;7.60;99.90;;;;;;5044408;28;20230;-70
2024/02/02 08:25:34;;;;;;;3.13;1.43;;;7.60;99.90;;;;;;5044618;28;20193;-68
2024/02/02 08:28:01;;;;;;;4.10;1.47;;;7.60;99.90;;;;;;5039479;28;20622;-69
2024/02/02 08:30:29;;;;;;;4.83;1.60;;;7.50;99.90;;;;;;5045436;28;20213;-68
2024/02/02 08:32:56;;;;;;;4.67;1.50;;;7.60;99.90;;;;;;5046093;28;20284;-69
2024/02/02 08:35:25;;;;;;;6.70;1.90;;;7.60;99.90;;;;;;5044269;28;20197;-69
2024/02/02 08:37:55;;;;;;;5.20;1.60;;;7.60;99.90;;;;;;5045440;28;20189;-69
2024/02/02 08:40:27;;;;;;;5.50;1.97;;;7.60;99.90;;;;;;5043947;28;20198;-69
2024/02/02 08:42:54;;;;;;;7.00;2.43;;;7.60;99.90;;;;;;5046227;28;20213;-70
2024/02/02 08:46:03;;;;;;;6.10;2.47;;;7.60;99.90;;;;;;5045967;28;20720;-69
2024/02/02 08:48:44;;;;;;;9.97;2.67;;;7.60;99.90;;;;;;5005392;28;20681;-70
2024/02/02 08:51:45;;;;;;;12.87;3.00;;;7.60;99.90;;;;;;5046599;28;20718;-68
2024/02/02 08:54:43;;;;;;;13.57;4.20;;;7.60;99.90;;;;;;5041004;28;20196;-69
2024/02/02 08:57:32;;;;;;;8.13;3.03;;;7.60;99.90;;;;;;5046071;28;20727;-70
2024/02/02 09:00:05;;;;;;;6.43;2.30;;;7.60;99.90;;;;;;5053440;28;20213;-70
2024/02/02 09:03:04;;;;;;;11.90;2.57;;;7.60;99.90;;;;;;5043421;28;20229;-69
2024/02/02 09:05:48;;;;;;;5.50;1.90;;;7.60;99.90;;;;;;5041873;28;20256;-68
2024/02/02 09:08:30;;;;;;;5.13;1.63;;;7.60;99.90;;;;;;5044372;28;20178;-69
2024/02/02 09:11:20;;;;;;;8.03;2.27;;;7.70;99.90;;;;;;5036915;28;20213;-69
2024/02/02 09:13:48;;;;;;;10.63;3.60;;;7.70;99.90;;;;;;5045290;28;20307;-69
2024/02/02 09:16:17;;;;;;;11.67;2.93;;;7.80;99.90;;;;;;5045934;28;20328;-69
2024/02/02 09:18:45;;;;;;;5.97;2.33;;;7.80;99.90;;;;;;5045699;28;20205;-69
2024/02/02 09:21:17;;;;;;;5.80;2.50;;;7.80;99.90;;;;;;5048140;28;20198;-69
2024/02/02 09:23:48;;;;;;;5.37;1.83;;;7.80;99.90;;;;;;5048952;28;20273;-69
2024/02/02 09:26:35;;;;;;;8.20;2.40;;;7.80;99.90;;;;;;5049900;28;20614;-69
2024/02/02 09:29:03;;;;;;;5.13;1.83;;;7.70;99.90;;;;;;5041006;28;20657;-69
2024/02/02 09:31:36;;;;;;;5.43;2.00;;;7.70;99.90;;;;;;5049849;28;20335;-69
2024/02/02 09:34:08;;;;;;;5.53;1.97;;;7.70;99.90;;;;;;5046135;28;20197;-70
2024/02/02 09:36:36;;;;;;;2.93;1.60;;;7.80;99.90;;;;;;5048177;28;20205;-69
2024/02/02 09:39:09;;;;;;;6.23;2.17;;;7.80;99.90;;;;;;5043251;28;20211;-69
2024/02/02 09:42:08;;;;;;;2.23;1.40;;;7.80;99.90;;;;;;5037656;28;20198;-70
2024/02/02 09:44:47;;;;;;;5.53;2.00;;;7.80;99.90;;;;;;5044762;28;20190;-69
2024/02/02 09:47:46;;;;;;;4.90;2.00;;;7.80;99.90;;;;;;5046371;28;20630;-70
2024/02/02 09:50:27;;;;;;;4.00;1.70;;;7.90;99.90;;;;;;5048962;28;20272;-68
2024/02/02 09:53:14;;;;;;;2.47;1.70;;;8.00;99.90;;;;;;5048326;28;20182;-69
2024/02/02 09:55:50;;;;;;;2.27;1.40;;;8.10;99.90;;;;;;5047209;28;20225;-68
2024/02/02 09:58:26;;;;;;;4.47;1.70;;;8.20;99.90;;;;;;5046610;28;20895;-69
2024/02/02 10:00:59;;;;;;;2.63;1.50;;;8.20;99.90;;;;;;5063612;28;20197;-69
2024/02/02 10:03:34;;;;;;;7.17;2.20;;;8.30;99.90;;;;;;5047419;28;20323;-69
2024/02/02 10:06:14;;;;;;;3.13;2.00;;;8.30;99.90;;;;;;5045119;28;20204;-69
2024/02/02 10:08:59;;;;;;;9.03;2.47;;;8.30;99.90;;;;;;5038743;28;20215;-70
2024/02/02 10:11:51;;;;;;;4.00;1.83;;;8.20;99.90;;;;;;5046958;28;20245;-69
2024/02/02 10:14:41;;;;;;;3.83;1.83;;;8.20;99.90;;;;;;5046594;28;20203;-69
2024/02/02 10:17:19;;;;;;;6.87;1.97;;;8.20;99.90;;;;;;5048672;28;20279;-70
2024/02/02 10:20:11;;;;;;;3.23;1.97;;;8.20;99.90;;;;;;5039304;28;20290;-69
2024/02/02 10:23:08;;;;;;;6.87;2.17;;;8.20;99.90;;;;;;5038570;28;20843;-69
2024/02/02 10:25:51;;;;;;;4.23;1.97;;;8.20;99.90;;;;;;5046849;28;20618;-69
2024/02/02 10:28:34;;;;;;;5.93;2.53;;;8.20;99.90;;;;;;5048335;28;20201;-68
2024/02/02 10:31:16;;;;;;;5.23;2.17;;;8.10;99.90;;;;;;5046877;28;20296;-70
2024/02/02 10:33:58;;;;;;;5.10;2.40;;;8.10;99.90;;;;;;5047281;28;20217;-69
2024/02/02 10:36:37;;;;;;;6.30;3.37;;;8.10;99.90;;;;;;5048180;28;20597;-69
2024/02/02 10:39:16;;;;;;;8.77;2.63;;;8.10;99.90;;;;;;5047567;28;20213;-69
2024/02/02 10:42:01;;;;;;;10.80;3.20;;;8.10;99.90;;;;;;5045910;28;20203;-68
2024/02/02 10:44:37;;;;;;;8.27;2.90;;;8.10;99.90;;;;;;5041864;28;20230;-69
2024/02/02 10:47:14;;;;;;;7.30;2.60;;;8.10;99.90;;;;;;5044175;28;20205;-68
2024/02/02 10:49:55;;;;;;;7.37;2.53;;;8.10;99.90;;;;;;5047993;28;20656;-70
2024/02/02 10:52:32;;;;;;;10.50;2.87;;;8.10;99.90;;;;;;5044487;28;20205;-69
2024/02/02 10:55:14;;;;;;;6.07;2.30;;;8.00;99.90;;;;;;5041929;28;20213;-70
2024/02/02 10:57:49;;;;;;;5.37;2.07;;;8.10;99.90;;;;;;5047369;28;20263;-69
2024/02/02 11:00:21;;;;;;;6.23;2.20;;;8.10;99.90;;;;;;5047939;28;20639;-69
2024/02/02 11:03:10;;;;;;;11.37;3.03;;;8.10;99.90;;;;;;5047335;28;20308;-69
2024/02/02 11:05:42;;;;;;;10.20;2.90;;;8.10;99.90;;;;;;5046709;28;20581;-69
2024/02/02 11:08:14;;;;;;;8.13;2.83;;;8.10;99.90;;;;;;5044202;28;20204;-69
2024/02/02 11:10:51;;;;;;;7.67;2.20;;;8.10;99.90;;;;;;5047492;28;20190;-69
2024/02/02 11:13:26;;;;;;;6.37;2.57;;;8.10;99.90;;;;;;5038527;28;20268;-69
2024/02/02 11:16:00;;;;;;;8.57;2.53;;;8.10;99.90;;;;;;5047002;28;20200;-69
2024/02/02 11:18:55;;;;;;;7.70;2.67;;;8.10;99.90;;;;;;5046017;28;20205;-69
2024/02/02 11:21:42;;;;;;;7.03;2.43;;;8.10;99.90;;;;;;5039209;28;20202;-69
2024/02/02 11:24:20;;;;;;;8.00;2.80;;;8.10;99.90;;;;;;5043149;28;20194;-70
2024/02/02 11:26:54;;;;;;;8.30;2.67;;;8.10;99.90;;;;;;5058043;28;20221;-70
2024/02/02 11:29:33;;;;;;;9.30;2.73;;;8.20;99.90;;;;;;5044866;28;20938;-69
2024/02/02 11:32:10;;;;;;;7.70;3.07;;;8.20;99.90;;;;;;5042274;28;20630;-70
2024/02/02 11:34:46;;;;;;;7.50;2.67;;;8.20;99.90;;;;;;5045674;28;20198;-69
2024/02/02 11:37:26;;;;;;;6.73;3.00;;;8.20;99.90;;;;;;5045918;28;20193;-69
2024/02/02 11:39:59;;;;;;;6.23;2.60;;;8.20;99.90;;;;;;5039579;28;20207;-70
2024/02/02 11:42:28;;;;;;;7.47;2.67;;;8.30;99.90;;;;;;5047226;28;20213;-69
2024/02/02 11:44:59;;;;;;;8.67;3.00;;;8.20;99.90;;;;;;5040614;28;20817;-69
2024/02/02 11:47:26;;;;;;;11.47;3.00;;;8.20;99.90;;;;;;5043506;28;20194;-69
2024/02/02 11:50:04;;;;;;;5.30;2.50;;;8.20;99.90;;;;;;5039279;28;20281;-68
2024/02/02 11:52:35;;;;;;;6.30;2.30;;;8.20;99.90;;;;;;5047428;28;20205;-69
2024/02/02 11:55:12;;;;;;;11.33;2.80;;;8.20;99.90;;;;;;5040408;28;20197;-69
2024/02/02 11:57:44;;;;;;;8.47;2.67;;;8.20;99.90;;;;;;5046935;28;20610;-70
2024/02/02 12:00:19;;;;;;;10.80;2.73;;;8.20;99.90;;;;;;5039096;28;20273;-69
2024/02/02 12:03:01;;;;;;;8.67;2.67;;;8.20;99.90;;;;;;5047022;28;20237;-68
2024/02/02 12:05:44;;;;;;;7.23;2.67;;;8.20;99.90;;;;;;5044162;28;20203;-70
2024/02/02 12:08:20;;;;;;;9.83;2.80;;;8.20;99.90;;;;;;5041804;28;20682;-69
2024/02/02 12:10:48;;;;;;;6.70;2.70;;;8.20;99.90;;;;;;5040517;28;20193;-69
2024/02/02 12:13:25;;;;;;;8.50;2.83;;;8.30;99.90;;;;;;5047186;28;20317;-69
2024/02/02 12:15:52;;;;;;;11.10;3.30;;;8.20;99.90;;;;;;5045818;28;20649;-68
2024/02/02 12:18:20;;;;;;;12.30;2.60;;;8.20;99.90;;;;;;5038074;28;20194;-69
2024/02/02 12:20:49;;;;;;;7.90;2.80;;;8.20;99.90;;;;;;5042363;28;20198;-68
2024/02/02 12:23:16;;;;;;;11.67;2.70;;;8.20;99.90;;;;;;5047155;28;20194;-68
2024/02/02 12:25:43;;;;;;;6.80;2.30;;;8.20;99.90;;;;;;5045429;28;20209;-69
2024/02/02 12:28:10;;;;;;;7.37;2.43;;;8.20;99.90;;;;;;5046281;28;20200;-68
2024/02/02 12:30:37;;;;;;;4.03;2.20;;;8.30;99.90;;;;;;5041330;28;20288;-68
2024/02/02 12:33:07;;;;;;;6.17;2.67;;;8.20;99.90;;;;;;5046566;28;20214;-68
2024/02/02 12:35:34;;;;;;;5.90;2.10;;;8.30;99.90;;;;;;5043793;28;20200;-68
2024/02/02 12:38:04;;;;;;;10.87;3.20;;;8.30;99.90;;;;;;5036726;28;20210;-69
2024/02/02 12:40:31;;;;;;;8.60;2.70;;;8.30;99.90;;;;;;5041960;28;20282;-68
2024/02/02 12:42:58;;;;;;;5.97;2.00;;;8.20;99.90;;;;;;5044892;28;20225;-68
2024/02/02 12:45:26;;;;;;;7.57;2.17;;;8.20;99.90;;;;;;5044815;28;20869;-68
2024/02/02 12:47:53;;;;;;;2.67;1.70;;;8.20;99.90;;;;;;5046400;28;20273;-68
2024/02/02 12:50:21;;;;;;;9.17;2.27;;;8.30;99.90;;;;;;5043310;28;20202;-69
2024/02/02 12:52:53;;;;;;;5.87;2.20;;;8.30;99.90;;;;;;5044770;28;20236;-68
2024/02/02 12:55:22;;;;;;;6.93;2.20;;;8.30;99.90;;;;;;5048849;28;20181;-68
2024/02/02 12:57:50;;;;;;;4.27;2.00;;;8.30;99.90;;;;;;5048399;28;22048;-68
2024/02/02 13:00:18;;;;;;;10.30;2.80;;;8.30;99.90;;;;;;5043401;28;20220;-68
2024/02/02 13:02:47;;;;;;;9.07;2.60;;;8.30;99.90;;;;;;5048452;28;20308;-68
2024/02/02 13:05:16;;;;;;;8.80;2.63;;;8.20;99.90;;;;;;5048982;28;20642;-68
2024/02/02 13:07:45;;;;;;;7.00;2.30;;;8.20;99.90;;;;;;5048965;28;20195;-68
2024/02/02 13:10:12;;;;;;;4.10;1.90;;;8.20;99.90;;;;;;5043041;28;20272;-68
2024/02/02 13:12:49;;;;;;;8.90;3.20;;;8.20;99.90;;;;;;5049386;28;20217;-69